Time;durP1;ratioP1;P1;durP2;ratioP2;P2;SDS_P1;SDS_P2;PMS_P1;PMS_P2;Temp;Humidity;BMP_temperature;BMP_pressure;BME280_temperature;BME280_humidity;BME280_pressure;Samples;Min_cycle;Max_cycle;Signal;HPM_P1;HPM_P2
2023/05/06 16:55:13;;;;;;;1.27;1.10;;;21.40;99.90;;;;;;5107226;27;20597;-70
2023/05/06 16:57:39;;;;;;;1.10;0.70;;;21.40;99.90;;;;;;5107677;28;20785;-68
2023/05/06 17:00:10;;;;;;;0.90;0.90;;;21.40;99.90;;;;;;5107434;28;20222;-69
2023/05/06 17:02:36;;;;;;;1.87;0.80;;;21.50;99.90;;;;;;5106502;28;20563;-70
2023/05/06 17:05:02;;;;;;;2.00;0.87;;;21.40;99.90;;;;;;5105668;28;20847;-68
2023/05/06 17:07:27;;;;;;;1.77;0.90;;;21.50;99.90;;;;;;5107164;28;20468;-70
2023/05/06 17:09:53;;;;;;;2.10;0.90;;;21.30;99.90;;;;;;5018490;28;20459;-70
2023/05/06 17:12:22;;;;;;;1.57;0.70;;;21.40;99.90;;;;;;4989311;28;20975;-72
2023/05/06 17:14:48;;;;;;;1.40;0.97;;;21.30;99.90;;;;;;4988617;28;20490;-71
2023/05/06 17:17:14;;;;;;;2.30;0.80;;;21.20;99.90;;;;;;4984721;28;20587;-69
2023/05/06 17:19:40;;;;;;;1.00;0.90;;;21.20;99.90;;;;;;4992133;28;21050;-70
2023/05/06 17:22:07;;;;;;;1.00;1.00;;;21.10;99.90;;;;;;4993626;28;20856;-70
2023/05/06 17:24:34;;;;;;;0.90;0.90;;;21.00;99.90;;;;;;4998207;28;20331;-70
2023/05/06 17:27:00;;;;;;;2.23;0.80;;;21.00;99.90;;;;;;4996953;28;20740;-73
2023/05/06 17:29:27;;;;;;;1.90;0.70;;;21.00;99.90;;;;;;4999782;28;20906;-71
2023/05/06 17:31:52;;;;;;;1.97;1.43;;;20.90;99.90;;;;;;4980028;28;20620;-74
2023/05/06 17:34:37;;;;;;;0.70;0.70;;;20.80;99.90;;;;;;5005844;28;20920;-75
2023/05/06 17:37:03;;;;;;;1.90;1.10;;;20.70;99.90;;;;;;5007186;28;20827;-72
2023/05/06 17:39:33;;;;;;;3.13;1.20;;;20.70;99.90;;;;;;4991531;28;20740;-72
2023/05/06 17:42:00;;;;;;;0.80;0.80;;;20.70;99.90;;;;;;4988666;28;21353;-72
2023/05/06 17:44:26;;;;;;;1.90;1.10;;;20.70;99.90;;;;;;5008700;28;20790;-71
2023/05/06 17:46:52;;;;;;;1.30;0.90;;;20.60;99.90;;;;;;5002306;28;20852;-73
2023/05/06 17:49:18;;;;;;;1.10;1.10;;;20.60;99.90;;;;;;5019085;28;20441;-73
2023/05/06 17:51:45;;;;;;;1.23;0.90;;;20.50;99.90;;;;;;5024719;27;20424;-72
2023/05/06 17:54:11;;;;;;;1.53;1.17;;;20.40;99.90;;;;;;4989473;28;20893;-71
2023/05/06 17:56:39;;;;;;;1.20;1.00;;;20.40;99.90;;;;;;4986442;28;21070;-73
2023/05/06 17:59:06;;;;;;;1.10;1.00;;;20.40;99.90;;;;;;4989493;28;20857;-72
2023/05/06 18:01:32;;;;;;;1.30;1.20;;;20.30;99.90;;;;;;4978703;28;21066;-75
2023/05/06 18:03:58;;;;;;;1.50;1.17;;;20.20;99.90;;;;;;4981495;28;21302;-75
2023/05/06 18:06:24;;;;;;;1.77;0.80;;;20.20;99.90;;;;;;4982282;28;20620;-73
2023/05/06 18:08:50;;;;;;;1.10;1.00;;;20.10;99.90;;;;;;4969895;28;20820;-75
2023/05/06 18:11:17;;;;;;;2.57;1.33;;;20.10;99.90;;;;;;4975691;28;20567;-75
2023/05/06 18:13:42;;;;;;;1.47;1.47;;;20.00;99.90;;;;;;4972917;28;20372;-74
2023/05/06 18:16:08;;;;;;;4.50;1.30;;;19.80;99.90;;;;;;4978028;28;20599;-76
2023/05/06 18:18:34;;;;;;;3.53;1.60;;;19.80;99.90;;;;;;4973538;28;20518;-76
2023/05/06 18:21:00;;;;;;;1.83;1.13;;;19.80;99.90;;;;;;5016567;28;20674;-74
2023/05/06 18:23:25;;;;;;;8.23;7.37;;;19.70;99.90;;;;;;5090879;28;20233;-73
2023/05/06 18:25:51;;;;;;;3.70;3.37;;;19.60;99.90;;;;;;5092429;28;20931;-73
2023/05/06 18:28:16;;;;;;;66.60;53.53;;;19.50;99.90;;;;;;5091741;28;20257;-73
2023/05/06 18:30:42;;;;;;;13.80;9.70;;;19.40;99.90;;;;;;5091613;28;20184;-71
2023/05/06 18:33:07;;;;;;;32.00;25.43;;;19.30;99.90;;;;;;5091955;28;20192;-70
2023/05/06 18:35:33;;;;;;;30.70;21.37;;;19.20;99.90;;;;;;5094346;28;20183;-70
2023/05/06 18:37:59;;;;;;;8.70;7.80;;;19.20;99.90;;;;;;5092174;28;20199;-69
2023/05/06 18:40:24;;;;;;;21.60;15.30;;;19.10;99.90;;;;;;5091428;28;20241;-70
2023/05/06 18:42:50;;;;;;;11.53;7.00;;;19.00;99.90;;;;;;5091054;28;20184;-70
2023/05/06 18:45:15;;;;;;;6.60;5.40;;;18.90;99.90;;;;;;5091674;28;20178;-71
2023/05/06 18:47:41;;;;;;;4.97;3.43;;;18.90;99.90;;;;;;5090308;28;20180;-71
2023/05/06 18:50:07;;;;;;;3.40;3.10;;;18.80;99.90;;;;;;5091527;28;20172;-71
2023/05/06 18:52:34;;;;;;;2.63;2.30;;;18.70;99.90;;;;;;5091195;28;20192;-71
2023/05/06 18:55:02;;;;;;;2.80;2.17;;;18.60;99.90;;;;;;5091632;28;20457;-70
2023/05/06 18:57:28;;;;;;;3.33;2.63;;;18.40;99.90;;;;;;5091961;28;20418;-71
2023/05/06 18:59:55;;;;;;;4.47;2.10;;;18.20;99.90;;;;;;5085736;28;20983;-70
2023/05/06 19:02:21;;;;;;;4.63;2.03;;;18.10;99.90;;;;;;5095599;28;20227;-70
2023/05/06 19:04:46;;;;;;;2.53;1.70;;;17.90;99.90;;;;;;5093966;28;20461;-71
2023/05/06 19:07:12;;;;;;;10.70;5.90;;;17.80;99.90;;;;;;5090837;28;20182;-69
2023/05/06 19:09:38;;;;;;;8.10;2.90;;;17.70;99.90;;;;;;5100061;28;20546;-72
2023/05/06 19:12:04;;;;;;;3.60;2.00;;;17.60;99.90;;;;;;5027691;28;20495;-69
2023/05/06 19:14:31;;;;;;;3.80;2.60;;;17.50;99.90;;;;;;4982511;28;20623;-71
2023/05/06 19:16:56;;;;;;;2.20;1.97;;;17.50;99.90;;;;;;5081336;28;20254;-73
2023/05/06 19:19:22;;;;;;;3.50;2.17;;;17.40;99.90;;;;;;5085409;28;20450;-72
2023/05/06 19:21:47;;;;;;;2.10;2.00;;;17.30;99.90;;;;;;5074487;28;20430;-73
2023/05/06 19:24:13;;;;;;;2.40;2.20;;;17.10;99.90;;;;;;5087346;28;20466;-72
2023/05/06 19:26:38;;;;;;;3.73;1.97;;;17.10;99.90;;;;;;5089734;28;20605;-72
2023/05/06 19:29:04;;;;;;;2.90;2.20;;;17.00;99.90;;;;;;5090244;28;20245;-70
2023/05/06 19:31:30;;;;;;;3.93;2.30;;;16.90;99.90;;;;;;5088699;28;20238;-72
2023/05/06 19:33:55;;;;;;;14.13;10.07;;;16.80;99.90;;;;;;5090215;28;20226;-71
2023/05/06 19:36:21;;;;;;;3.00;2.80;;;16.70;99.90;;;;;;5090435;28;20287;-71
2023/05/06 19:38:46;;;;;;;2.67;1.80;;;16.70;99.90;;;;;;5090461;28;20196;-70
2023/05/06 19:41:12;;;;;;;2.50;1.90;;;16.60;99.90;;;;;;5079656;28;20207;-71
2023/05/06 19:43:42;;;;;;;2.27;2.07;;;16.60;99.90;;;;;;5089764;28;20203;-72
2023/05/06 19:46:08;;;;;;;1.70;1.60;;;16.50;99.90;;;;;;5089495;28;20230;-70
2023/05/06 19:48:34;;;;;;;5.03;2.23;;;16.50;99.90;;;;;;5083576;28;20442;-71
2023/05/06 19:51:00;;;;;;;2.93;2.23;;;16.50;99.90;;;;;;5078936;28;20426;-71
2023/05/06 19:53:26;;;;;;;2.23;2.03;;;16.40;99.90;;;;;;5089481;28;20513;-69
2023/05/06 19:55:54;;;;;;;3.63;3.13;;;16.40;99.90;;;;;;5086345;28;20482;-73
2023/05/06 19:58:20;;;;;;;5.07;2.80;;;16.30;99.90;;;;;;5089691;28;20219;-73
2023/05/06 20:00:45;;;;;;;6.47;2.90;;;16.30;99.90;;;;;;5087402;28;20442;-71
2023/05/06 20:03:11;;;;;;;3.33;2.60;;;16.20;99.90;;;;;;5082568;28;20215;-72
2023/05/06 20:05:36;;;;;;;3.67;2.60;;;16.10;99.90;;;;;;5092598;28;20226;-71
2023/05/06 20:08:02;;;;;;;5.43;1.90;;;16.00;99.90;;;;;;5088112;28;20211;-72
2023/05/06 20:10:28;;;;;;;3.43;2.37;;;16.00;99.90;;;;;;5084010;28;20196;-72
2023/05/06 20:12:54;;;;;;;4.33;3.40;;;15.90;99.90;;;;;;5087872;28;20294;-70
2023/05/06 20:15:19;;;;;;;4.30;2.37;;;15.90;99.90;;;;;;5089262;28;20199;-72
2023/05/06 20:17:45;;;;;;;2.10;1.90;;;15.80;99.90;;;;;;5089430;28;20213;-72
2023/05/06 20:20:11;;;;;;;2.17;2.03;;;15.80;99.90;;;;;;5089113;28;20196;-72
2023/05/06 20:22:37;;;;;;;2.73;2.53;;;15.70;99.90;;;;;;5087853;28;20211;-72
2023/05/06 20:25:11;;;;;;;3.23;3.03;;;15.60;99.90;;;;;;5083136;28;20284;-72
2023/05/06 20:27:37;;;;;;;4.03;3.13;;;15.60;99.90;;;;;;5086910;28;20457;-72
2023/05/06 20:30:04;;;;;;;2.73;2.50;;;15.50;99.90;;;;;;5082020;28;20898;-72
2023/05/06 20:32:30;;;;;;;4.20;2.60;;;15.50;99.90;;;;;;5087993;28;20529;-72
2023/05/06 20:34:57;;;;;;;2.70;2.50;;;15.40;99.90;;;;;;5092022;28;20648;-71
2023/05/06 20:37:22;;;;;;;3.17;2.87;;;15.40;99.90;;;;;;5089407;28;20198;-73
2023/05/06 20:39:48;;;;;;;2.10;2.00;;;15.30;99.90;;;;;;5089455;28;20468;-72
2023/05/06 20:42:13;;;;;;;2.70;2.50;;;15.30;99.90;;;;;;5087800;28;20204;-73
2023/05/06 20:44:39;;;;;;;4.53;3.03;;;15.20;99.90;;;;;;5091700;28;20744;-72
2023/05/06 20:47:09;;;;;;;3.53;3.00;;;15.20;99.90;;;;;;5089066;28;20278;-71
2023/05/06 20:49:35;;;;;;;9.97;5.53;;;15.10;99.90;;;;;;5088692;28;20200;-71
2023/05/06 20:52:03;;;;;;;14.57;7.03;;;15.00;99.90;;;;;;5026288;28;21297;-69
2023/05/06 20:54:28;;;;;;;20.00;9.30;;;15.00;99.90;;;;;;5024423;28;20392;-70
2023/05/06 21:00:49;;;;;;;13.07;3.50;;;14.90;99.90;;;;;;4954843;28;20225;-70
2023/05/06 21:04:04;;;;;;;;;;;;;;;;;;;;;
2023/05/06 21:07:26;;;;;;;;;;;;;;;;;;;;;
2023/05/06 21:13:48;;;;;;;3.00;2.80;;;14.60;99.90;;;;;;4941085;28;20957;-73
2023/05/06 21:19:43;;;;;;;3.60;3.30;;;14.50;99.90;;;;;;4882716;29;21074;-71
2023/05/06 21:22:28;;;;;;;3.43;2.97;;;14.40;99.90;;;;;;4900796;29;20444;-73
2023/05/06 21:24:57;;;;;;;7.07;3.80;;;14.30;99.90;;;;;;5030709;27;20518;-73
2023/05/06 21:27:24;;;;;;;5.73;2.60;;;14.30;99.90;;;;;;5036387;28;20621;-74
2023/05/06 21:29:53;;;;;;;6.87;2.97;;;14.20;99.90;;;;;;5041818;28;20766;-73
2023/05/06 21:32:20;;;;;;;6.13;3.97;;;14.20;99.90;;;;;;5040784;28;20422;-73
2023/05/06 21:38:28;;;;;;;5.00;3.57;;;14.10;99.90;;;;;;5037224;28;21326;-71
2023/05/06 21:41:01;;;;;;;3.43;3.17;;;14.10;99.90;;;;;;5022185;28;20642;-74
2023/05/06 21:44:33;;;;;;;6.60;3.80;;;13.90;99.90;;;;;;5034896;28;20620;-72
2023/05/06 21:46:53;;;;;;;5.23;3.37;;;13.80;99.90;;;;;;5071767;27;20449;-71
2023/05/06 21:49:21;;;;;;;4.20;3.80;;;13.80;99.90;;;;;;5066167;28;20640;-71
2023/05/06 21:51:49;;;;;;;4.00;3.70;;;13.70;99.90;;;;;;5070692;28;20449;-74
2023/05/06 21:54:16;;;;;;;4.30;4.00;;;13.70;99.90;;;;;;5067618;28;20473;-72
2023/05/06 21:56:45;;;;;;;6.03;3.73;;;13.70;99.90;;;;;;5039220;28;20469;-77
2023/05/06 21:59:12;;;;;;;5.90;3.80;;;13.60;99.90;;;;;;5066841;28;20433;-72
2023/05/06 22:01:37;;;;;;;3.57;3.33;;;13.60;99.90;;;;;;5089853;28;20450;-73
2023/05/06 22:04:09;;;;;;;4.90;3.77;;;13.50;99.90;;;;;;5091201;28;20792;-73
2023/05/06 22:06:35;;;;;;;5.57;3.73;;;13.50;99.90;;;;;;5093635;28;20214;-72
2023/05/06 22:09:03;;;;;;;4.67;4.20;;;13.40;99.90;;;;;;5097043;28;20535;-72
2023/05/06 22:11:29;;;;;;;9.07;4.20;;;13.30;99.90;;;;;;5090712;28;20434;-72
2023/05/06 22:13:54;;;;;;;3.93;3.60;;;13.30;99.90;;;;;;5095525;28;20968;-72
2023/05/06 22:16:20;;;;;;;4.20;3.53;;;13.30;99.90;;;;;;5092686;28;20215;-73
2023/05/06 22:18:46;;;;;;;9.80;3.73;;;13.20;99.90;;;;;;5090982;28;20196;-71
2023/05/06 22:21:12;;;;;;;8.63;3.50;;;13.20;99.90;;;;;;5089499;28;20998;-72
2023/05/06 22:23:39;;;;;;;5.00;3.70;;;13.10;99.90;;;;;;5093818;28;20206;-74
2023/05/06 22:26:05;;;;;;;4.10;3.70;;;13.10;99.90;;;;;;5098411;28;20469;-73
2023/05/06 22:28:31;;;;;;;3.47;3.13;;;13.10;99.90;;;;;;5094656;28;20544;-73
2023/05/06 22:30:56;;;;;;;4.30;3.90;;;13.00;99.90;;;;;;5089686;28;20434;-72
2023/05/06 22:33:21;;;;;;;3.90;3.53;;;13.00;99.90;;;;;;5003449;28;20819;-71
2023/05/06 22:35:47;;;;;;;5.20;3.60;;;13.00;99.90;;;;;;5091248;28;20198;-70
2023/05/06 22:38:13;;;;;;;4.00;3.70;;;12.90;99.90;;;;;;5091278;28;20216;-72
2023/05/06 22:40:38;;;;;;;4.30;3.90;;;12.90;99.90;;;;;;5091678;28;20230;-72
2023/05/06 22:43:04;;;;;;;13.97;4.07;;;12.90;99.90;;;;;;5088927;28;20183;-73
2023/05/06 22:45:29;;;;;;;4.70;4.23;;;12.90;99.90;;;;;;5090102;28;20176;-72
2023/05/06 22:47:55;;;;;;;7.40;4.10;;;12.90;99.90;;;;;;5092408;28;20164;-73
2023/05/06 22:50:21;;;;;;;4.73;4.00;;;12.80;99.90;;;;;;5091449;28;20164;-73
2023/05/06 22:52:46;;;;;;;4.43;3.67;;;12.80;99.90;;;;;;5091266;28;20529;-69
2023/05/06 22:55:12;;;;;;;6.73;3.90;;;12.70;99.90;;;;;;5088352;28;20257;-73
2023/05/06 22:57:37;;;;;;;6.20;4.30;;;12.60;99.90;;;;;;5087152;28;20251;-73
2023/05/06 23:00:05;;;;;;;4.47;3.57;;;12.60;99.90;;;;;;5091847;28;20225;-72
2023/05/06 23:02:30;;;;;;;7.17;4.33;;;12.60;99.90;;;;;;5090821;28;20191;-72
2023/05/06 23:04:56;;;;;;;5.13;4.40;;;12.50;99.90;;;;;;5090670;28;20430;-73
2023/05/06 23:07:21;;;;;;;4.20;3.83;;;12.50;99.90;;;;;;5092003;28;20229;-73
2023/05/06 23:09:47;;;;;;;4.37;3.90;;;12.40;99.90;;;;;;5089860;28;20263;-70
2023/05/06 23:12:12;;;;;;;4.40;4.00;;;12.40;99.90;;;;;;5083302;28;20196;-73
2023/05/06 23:14:38;;;;;;;5.17;3.90;;;12.40;99.90;;;;;;5091469;28;20204;-73
2023/05/06 23:17:03;;;;;;;5.70;4.10;;;12.30;99.90;;;;;;5091596;28;20179;-73
2023/05/06 23:19:29;;;;;;;3.70;3.50;;;12.30;99.90;;;;;;5090237;28;20176;-72
2023/05/06 23:21:55;;;;;;;4.97;4.33;;;12.20;99.90;;;;;;5090447;28;20206;-72
2023/05/06 23:24:20;;;;;;;3.30;3.00;;;12.20;99.90;;;;;;5090029;28;20183;-73
2023/05/06 23:26:46;;;;;;;3.97;3.27;;;12.20;99.90;;;;;;5091594;28;20180;-73
2023/05/06 23:29:11;;;;;;;3.73;3.50;;;12.20;99.90;;;;;;5083140;28;20177;-73
2023/05/06 23:31:37;;;;;;;4.30;3.97;;;12.20;99.90;;;;;;5090123;28;20192;-73
2023/05/06 23:34:02;;;;;;;5.90;4.73;;;12.20;99.90;;;;;;5091194;28;20200;-73
2023/05/06 23:36:28;;;;;;;5.23;4.23;;;12.20;99.90;;;;;;5091306;28;20595;-71
2023/05/06 23:38:53;;;;;;;5.73;4.90;;;12.20;99.90;;;;;;5091104;28;20184;-73
2023/05/06 23:41:20;;;;;;;4.07;3.67;;;12.20;99.90;;;;;;5088450;28;20196;-73
2023/05/06 23:43:45;;;;;;;5.13;4.37;;;12.30;99.90;;;;;;5090993;28;20176;-73
2023/05/06 23:46:11;;;;;;;4.50;4.10;;;12.30;99.90;;;;;;5087788;28;20952;-74
2023/05/06 23:48:37;;;;;;;5.27;4.23;;;12.30;99.90;;;;;;5088545;28;20186;-73
2023/05/06 23:51:02;;;;;;;4.30;3.90;;;12.30;99.90;;;;;;5091043;28;20203;-72
2023/05/06 23:53:28;;;;;;;4.67;4.37;;;12.30;99.90;;;;;;5090977;28;20200;-72
2023/05/06 23:55:54;;;;;;;4.73;3.67;;;12.30;99.90;;;;;;5085471;28;20261;-73
2023/05/06 23:58:19;;;;;;;5.57;4.93;;;12.30;99.90;;;;;;5090748;28;20187;-73
